createdAt,value
2022-10-28T00:00:32.607Z,18.36
2022-10-28T00:03:01.839Z,18.36
2022-10-28T00:05:29.501Z,18.34
2022-10-28T00:07:57.162Z,18.35
2022-10-28T00:10:24.783Z,18.34
2022-10-28T00:12:53.798Z,18.36
2022-10-28T00:15:21.386Z,18.33
2022-10-28T00:17:49.102Z,18.35
2022-10-28T00:20:16.890Z,18.32
2022-10-28T00:22:44.888Z,18.30
2022-10-28T00:25:12.740Z,18.30
2022-10-28T00:27:40.362Z,18.29
2022-10-28T00:30:10.481Z,18.27
2022-10-28T00:32:38.159Z,18.29
2022-10-28T00:35:06.700Z,18.27
2022-10-28T00:37:34.306Z,18.28
2022-10-28T00:40:01.945Z,18.26
2022-10-28T00:42:29.566Z,18.22
2022-10-28T00:44:59.137Z,18.21
2022-10-28T00:47:51.948Z,18.18
2022-10-28T00:50:41.339Z,18.15
2022-10-28T00:53:12.587Z,18.12
2022-10-28T00:55:40.209Z,18.12
2022-10-28T00:58:09.228Z,18.11
2022-10-28T01:00:37.049Z,18.10
2022-10-28T01:03:06.145Z,18.07
2022-10-28T01:05:36.142Z,18.09
2022-10-28T01:08:05.371Z,18.09
2022-10-28T01:10:53.233Z,18.04
2022-10-28T01:13:28.079Z,18.02
2022-10-28T01:16:00.652Z,18.08
2022-10-28T01:18:33.313Z,18.06
2022-10-28T01:21:38.996Z,18.10
2022-10-28T01:24:16.791Z,18.10
2022-10-28T01:27:35.377Z,18.09
2022-10-28T01:30:09.617Z,18.09
2022-10-28T01:32:49.277Z,18.08
2022-10-28T01:35:20.471Z,18.07
2022-10-28T01:37:51.863Z,18.06
2022-10-28T01:40:23.238Z,18.05
2022-10-28T01:42:54.851Z,18.04
2022-10-28T01:45:26.325Z,18.03
2022-10-28T01:47:58.949Z,18.00
2022-10-28T01:50:30.062Z,17.94
2022-10-28T01:53:00.256Z,18.00
2022-10-28T01:55:29.499Z,17.93
2022-10-28T01:57:59.138Z,17.98
2022-10-28T02:00:27.033Z,17.98
2022-10-28T02:02:57.012Z,17.96
2022-10-28T02:05:42.729Z,17.90
2022-10-28T02:08:36.633Z,17.94
2022-10-28T02:11:34.116Z,17.93
2022-10-28T02:14:08.585Z,17.89
2022-10-28T02:16:43.705Z,17.86
2022-10-28T02:19:16.728Z,17.90
2022-10-28T02:21:50.823Z,17.89
2022-10-28T02:24:20.749Z,17.89
2022-10-28T02:26:54.195Z,17.88
2022-10-28T02:29:28.624Z,17.85
2022-10-28T02:31:58.961Z,17.83
2022-10-28T02:34:30.890Z,17.81
2022-10-28T02:37:00.934Z,17.80
2022-10-28T02:39:31.281Z,17.78
2022-10-28T02:42:01.384Z,17.78
2022-10-28T02:44:30.695Z,17.77
2022-10-28T02:47:00.987Z,17.78
2022-10-28T02:49:32.910Z,17.75
2022-10-28T02:52:03.071Z,17.76
2022-10-28T02:54:33.854Z,17.75
2022-10-28T02:57:05.383Z,17.72
2022-10-28T02:59:33.010Z,17.76
2022-10-28T03:02:00.817Z,17.72
2022-10-28T03:04:29.958Z,17.72
2022-10-28T03:06:57.557Z,17.71
2022-10-28T03:09:25.255Z,17.70
2022-10-28T03:11:52.991Z,17.68
2022-10-28T03:14:20.612Z,17.69
2022-10-28T03:16:48.238Z,17.66
2022-10-28T03:19:15.906Z,17.66
2022-10-28T03:21:44.912Z,17.66
2022-10-28T03:24:12.492Z,17.65
2022-10-28T03:26:40.128Z,17.65
2022-10-28T03:29:07.777Z,17.63
2022-10-28T03:31:35.419Z,17.63
2022-10-28T03:34:03.077Z,17.62
2022-10-28T03:36:30.685Z,17.63
2022-10-28T03:38:59.663Z,17.62
2022-10-28T03:41:27.325Z,17.62
2022-10-28T03:43:55.141Z,17.62
2022-10-28T03:46:22.761Z,17.62
2022-10-28T03:48:50.383Z,17.64
2022-10-28T03:51:18.238Z,17.64
2022-10-28T03:53:45.896Z,17.63
2022-10-28T03:56:14.945Z,17.61
2022-10-28T03:58:42.645Z,17.59
2022-10-28T04:01:10.412Z,17.59
2022-10-28T04:03:38.078Z,17.58
2022-10-28T04:06:06.122Z,17.58
2022-10-28T04:08:33.812Z,17.59
2022-10-28T04:11:01.466Z,17.59
2022-10-28T04:13:30.455Z,17.58
2022-10-28T04:15:58.070Z,17.57
2022-10-28T04:18:25.714Z,17.54
2022-10-28T04:20:53.312Z,17.56
2022-10-28T04:23:20.958Z,17.55
2022-10-28T04:25:52.253Z,17.51
2022-10-28T04:28:19.889Z,17.52
2022-10-28T04:30:49.193Z,17.52
2022-10-28T04:33:16.988Z,17.51
2022-10-28T04:35:44.608Z,17.50
2022-10-28T04:38:12.569Z,17.48
2022-10-28T04:40:40.216Z,17.48
2022-10-28T04:43:09.887Z,17.46
2022-10-28T04:45:38.418Z,17.45
2022-10-28T04:48:07.889Z,17.43
2022-10-28T04:50:35.486Z,17.42
2022-10-28T04:53:03.097Z,17.42
2022-10-28T04:55:30.718Z,17.33
2022-10-28T04:57:59.837Z,17.40
2022-10-28T05:00:28.581Z,17.40
2022-10-28T05:02:57.047Z,17.39
2022-10-28T05:05:26.532Z,17.39
2022-10-28T05:07:54.317Z,17.39
2022-10-28T05:10:22.121Z,17.38
2022-10-28T05:12:49.740Z,17.40
2022-10-28T05:15:17.639Z,17.41
2022-10-28T05:17:46.829Z,17.34
2022-10-28T05:20:16.660Z,17.42
2022-10-28T05:22:49.168Z,17.44
2022-10-28T05:25:16.968Z,17.45
2022-10-28T05:27:44.848Z,17.46
2022-10-28T05:30:13.395Z,17.45
2022-10-28T05:32:41.167Z,17.46
2022-10-28T05:35:09.800Z,17.47
2022-10-28T05:37:37.648Z,17.45
2022-10-28T05:40:07.632Z,17.46
2022-10-28T05:42:35.271Z,17.44
2022-10-28T05:45:02.921Z,17.44
2022-10-28T05:47:30.557Z,17.44
2022-10-28T05:49:58.170Z,17.43
2022-10-28T05:52:26.418Z,17.46
2022-10-28T05:54:54.029Z,17.47
2022-10-28T05:57:23.093Z,17.47
2022-10-28T05:59:50.658Z,17.47
2022-10-28T06:02:18.334Z,17.48
2022-10-28T06:04:45.937Z,17.48
2022-10-28T06:07:13.550Z,17.48
2022-10-28T06:09:41.199Z,17.47
2022-10-28T06:12:07.885Z,17.47
2022-10-28T06:14:36.875Z,17.48
2022-10-28T06:17:04.452Z,17.47
2022-10-28T06:19:31.991Z,17.48
2022-10-28T06:21:59.719Z,17.47
2022-10-28T06:24:27.356Z,17.48
2022-10-28T06:26:55.003Z,17.46
2022-10-28T06:29:22.641Z,17.45
2022-10-28T06:31:51.671Z,17.45
2022-10-28T06:34:19.313Z,17.48
2022-10-28T06:36:46.933Z,17.50
2022-10-28T06:39:14.572Z,17.51
2022-10-28T06:41:42.357Z,17.52
2022-10-28T06:44:10.066Z,17.51
2022-10-28T06:46:39.175Z,17.53
2022-10-28T06:49:09.054Z,17.52
2022-10-28T06:51:36.694Z,17.55
2022-10-28T06:54:04.445Z,17.56
2022-10-28T06:56:32.042Z,17.57
2022-10-28T06:58:59.669Z,17.57
2022-10-28T07:01:27.399Z,17.58
2022-10-28T07:03:55.070Z,17.56
2022-10-28T07:06:24.087Z,17.58
2022-10-28T07:08:52.591Z,17.58
2022-10-28T07:11:20.237Z,17.60
2022-10-28T07:13:49.025Z,17.62
2022-10-28T07:16:16.833Z,17.63
2022-10-28T07:18:44.495Z,17.64
2022-10-28T07:21:12.303Z,17.66
2022-10-28T07:23:41.353Z,17.66
2022-10-28T07:26:08.935Z,17.71
2022-10-28T07:28:36.552Z,17.72
2022-10-28T07:31:05.095Z,17.74
2022-10-28T07:35:48.145Z,17.75
2022-10-28T07:38:15.864Z,17.77
2022-10-28T07:40:43.480Z,17.79
2022-10-28T07:43:11.130Z,17.83
2022-10-28T07:45:39.107Z,17.86
2022-10-28T07:48:07.993Z,17.89
2022-10-28T07:50:36.033Z,17.93
2022-10-28T07:53:44.242Z,17.95
2022-10-28T07:56:14.055Z,17.98
2022-10-28T07:58:42.490Z,18.05
2022-10-28T08:01:12.286Z,18.08
2022-10-28T08:03:40.267Z,18.12
2022-10-28T08:06:10.629Z,18.17
2022-10-28T08:08:38.757Z,18.20
2022-10-28T08:11:15.436Z,18.23
2022-10-28T08:13:43.479Z,18.27
2022-10-28T08:16:11.371Z,18.30
2022-10-28T08:18:40.184Z,18.32
2022-10-28T08:21:09.172Z,18.35
2022-10-28T08:23:38.282Z,18.35
2022-10-28T08:26:06.710Z,18.40
2022-10-28T08:28:35.780Z,18.43
2022-10-28T08:31:08.766Z,18.44
2022-10-28T08:33:38.167Z,18.48
2022-10-28T08:36:06.438Z,18.52
2022-10-28T08:38:34.280Z,18.57
2022-10-28T08:41:12.053Z,18.60
2022-10-28T08:43:57.700Z,18.69
2022-10-28T08:46:31.954Z,18.74
2022-10-28T08:49:02.133Z,18.79
2022-10-28T08:54:06.848Z,18.92
2022-10-28T08:56:35.930Z,18.98
2022-10-28T08:59:06.002Z,19.03
2022-10-28T09:01:39.826Z,19.08
2022-10-28T09:04:14.379Z,19.11
2022-10-28T09:06:41.993Z,19.21
2022-10-28T09:09:44.845Z,19.28
2022-10-28T09:12:18.889Z,19.35
2022-10-28T09:14:57.061Z,19.40
2022-10-28T09:17:30.557Z,19.44
2022-10-28T09:20:00.926Z,19.45
2022-10-28T09:22:32.380Z,19.50
2022-10-28T09:25:03.254Z,19.49
2022-10-28T09:27:51.375Z,19.49
2022-10-28T09:30:32.160Z,19.50
2022-10-28T09:33:10.255Z,19.50
2022-10-28T09:35:41.188Z,19.51
2022-10-28T09:38:16.446Z,19.56
2022-10-28T09:40:51.593Z,19.62
2022-10-28T09:43:24.123Z,19.69
2022-10-28T09:45:54.039Z,19.78
2022-10-28T09:48:24.617Z,19.85
2022-10-28T09:50:54.125Z,19.92
2022-10-28T09:53:35.068Z,20.02
2022-10-28T09:56:06.418Z,20.10
2022-10-28T09:58:34.727Z,20.17
2022-10-28T10:01:03.282Z,20.19
2022-10-28T10:03:30.994Z,20.26
2022-10-28T10:06:01.038Z,20.35
2022-10-28T10:08:31.206Z,20.44
2022-10-28T10:11:02.125Z,20.51
2022-10-28T10:13:35.328Z,20.54
2022-10-28T10:16:06.943Z,20.61
2022-10-28T10:18:35.120Z,20.63
2022-10-28T10:21:02.808Z,20.66
2022-10-28T10:23:32.028Z,20.74
2022-10-28T10:26:03.135Z,20.82
2022-10-28T10:28:34.647Z,20.93
2022-10-28T10:31:04.647Z,21.02
2022-10-28T10:33:34.583Z,21.08
2022-10-28T10:36:05.056Z,21.09
2022-10-28T10:38:33.160Z,21.08
2022-10-28T10:41:00.887Z,21.12
2022-10-28T10:43:33.791Z,21.12
2022-10-28T10:46:03.775Z,21.14
2022-10-28T10:48:33.883Z,21.15
2022-10-28T10:51:06.351Z,21.17
2022-10-28T10:53:34.276Z,21.18
2022-10-28T10:56:03.560Z,21.14
2022-10-28T10:58:34.920Z,21.17
2022-10-28T11:01:04.945Z,21.15
2022-10-28T11:03:36.759Z,21.12
2022-10-28T11:08:59.345Z,21.16
2022-10-28T11:11:33.905Z,21.19
2022-10-28T11:14:08.507Z,21.22
2022-10-28T11:16:48.272Z,21.25
2022-10-28T11:19:21.907Z,21.26
2022-10-28T11:21:58.076Z,21.31
2022-10-28T11:24:42.345Z,21.30
2022-10-28T11:27:15.265Z,21.34
2022-10-28T11:29:45.682Z,21.32
2022-10-28T11:32:21.529Z,21.41
2022-10-28T11:35:11.669Z,21.45
2022-10-28T11:37:49.337Z,21.53
2022-10-28T11:40:27.622Z,21.56
2022-10-28T11:43:06.583Z,21.59
2022-10-28T11:45:40.526Z,21.63
2022-10-28T11:48:19.113Z,21.64
2022-10-28T11:50:54.115Z,21.63
2022-10-28T11:53:57.476Z,21.63
2022-10-28T11:56:31.926Z,21.65
2022-10-28T11:59:08.991Z,21.65
2022-10-28T12:04:05.854Z,21.67
2022-10-28T12:09:55.381Z,21.69
2022-10-28T12:12:28.975Z,21.70
2022-10-28T12:15:01.125Z,21.69
2022-10-28T12:17:35.025Z,21.70
2022-10-28T12:20:09.460Z,21.66
2022-10-28T12:22:43.341Z,21.67
2022-10-28T12:25:15.706Z,21.67
2022-10-28T12:27:45.629Z,21.67
2022-10-28T12:30:20.925Z,21.68
2022-10-28T12:32:50.592Z,21.69
2022-10-28T12:36:34.102Z,21.71
2022-10-28T12:39:03.753Z,21.70
2022-10-28T12:41:46.697Z,21.73
2022-10-28T12:44:15.890Z,21.76
2022-10-28T12:49:26.834Z,21.80
2022-10-28T12:51:57.188Z,21.79
2022-10-28T12:54:28.803Z,21.79
2022-10-28T12:57:04.792Z,21.87
2022-10-28T12:59:38.125Z,21.89
2022-10-28T13:02:08.065Z,21.86
2022-10-28T13:04:56.374Z,21.89
2022-10-28T13:07:38.404Z,21.87
2022-10-28T13:10:17.290Z,21.88
2022-10-28T13:13:03.350Z,21.88
2022-10-28T13:16:06.690Z,21.89
2022-10-28T13:18:49.162Z,21.90
2022-10-28T13:21:25.951Z,21.89
2022-10-28T13:23:56.459Z,21.91
2022-10-28T13:26:26.425Z,21.91
2022-10-28T13:28:55.819Z,21.94
2022-10-28T13:31:23.765Z,21.91
2022-10-28T13:33:57.078Z,21.98
2022-10-28T13:38:33.562Z,21.94
2022-10-28T13:41:29.613Z,21.97
2022-10-28T13:44:22.437Z,21.95
2022-10-28T13:47:25.186Z,21.94
2022-10-28T13:50:15.234Z,21.93
2022-10-28T13:52:44.091Z,21.90
2022-10-28T13:55:25.959Z,21.93
2022-10-28T13:58:00.025Z,21.94
2022-10-28T14:00:38.811Z,21.92
2022-10-28T14:03:07.500Z,21.91
2022-10-28T14:05:52.772Z,21.90
2022-10-28T14:08:22.938Z,21.89
2022-10-28T14:11:03.253Z,21.87
2022-10-28T14:13:32.276Z,21.83
2022-10-28T14:16:25.194Z,21.84
2022-10-28T14:18:56.033Z,21.79
2022-10-28T14:21:24.221Z,21.79
2022-10-28T14:24:11.604Z,21.76
2022-10-28T14:27:28.725Z,21.75
2022-10-28T14:30:24.731Z,21.74
2022-10-28T14:33:22.406Z,21.72
2022-10-28T14:35:55.577Z,21.68
2022-10-28T14:38:36.670Z,21.69
2022-10-28T14:41:25.674Z,21.67
2022-10-28T14:44:02.043Z,21.65
2022-10-28T14:46:41.480Z,21.63
2022-10-28T14:49:16.996Z,21.60
2022-10-28T14:51:45.679Z,21.58
2022-10-28T14:54:16.570Z,21.58
2022-10-28T14:56:44.585Z,21.56
2022-10-28T14:59:24.288Z,21.55
2022-10-28T15:02:01.367Z,21.52
2022-10-28T15:04:30.107Z,21.53
2022-10-28T15:06:58.061Z,21.51
2022-10-28T15:09:27.445Z,21.50
2022-10-28T15:11:58.940Z,21.42
2022-10-28T15:14:29.514Z,21.47
2022-10-28T15:17:00.002Z,21.46
2022-10-28T15:19:29.298Z,21.44
2022-10-28T15:22:05.284Z,21.43
2022-10-28T15:24:33.166Z,21.41
2022-10-28T15:27:01.064Z,21.38
2022-10-28T15:29:29.115Z,21.37
2022-10-28T15:32:16.124Z,21.34
2022-10-28T15:34:44.216Z,21.33
2022-10-28T15:37:12.774Z,21.30
2022-10-28T15:39:40.845Z,21.28
2022-10-28T15:44:04.931Z,21.27
2022-10-28T15:46:33.529Z,21.24
2022-10-28T15:49:02.447Z,21.25
2022-10-28T15:51:30.194Z,21.22
2022-10-28T15:54:11.255Z,21.19
2022-10-28T15:56:54.739Z,21.15
2022-10-28T15:59:24.996Z,21.14
2022-10-28T16:01:55.881Z,21.08
2022-10-28T16:04:43.121Z,21.06
2022-10-28T16:07:10.927Z,21.03
2022-10-28T16:09:44.284Z,21.01
2022-10-28T16:12:15.396Z,21.00
2022-10-28T16:14:45.593Z,20.98
2022-10-28T16:17:16.693Z,20.96
2022-10-28T16:19:49.308Z,20.94
2022-10-28T16:22:18.388Z,20.93
2022-10-28T16:24:47.029Z,20.89
2022-10-28T16:27:17.958Z,20.86
2022-10-28T16:29:47.045Z,20.83
2022-10-28T16:32:15.527Z,20.82
2022-10-28T16:34:43.199Z,20.81
2022-10-28T16:37:20.720Z,20.78
2022-10-28T16:42:41.460Z,20.70
2022-10-28T16:45:18.422Z,20.69
2022-10-28T16:47:46.369Z,20.67
2022-10-28T16:50:14.227Z,20.66
2022-10-28T16:52:41.837Z,20.65
2022-10-28T16:55:13.606Z,20.59
2022-10-28T16:57:42.636Z,20.61
2022-10-28T17:00:14.365Z,20.61
2022-10-28T17:02:42.376Z,20.59
2022-10-28T17:05:17.684Z,20.57
2022-10-28T17:07:45.435Z,20.58
2022-10-28T17:10:13.575Z,20.56
2022-10-28T17:12:42.641Z,20.56
2022-10-28T17:15:11.506Z,20.55
2022-10-28T17:17:39.321Z,20.50
2022-10-28T17:20:08.464Z,20.53
2022-10-28T17:22:36.105Z,20.49
2022-10-28T17:25:03.813Z,20.47
2022-10-28T17:27:31.489Z,20.48
2022-10-28T17:30:00.603Z,20.46
2022-10-28T17:32:28.307Z,20.42
2022-10-28T17:34:55.971Z,20.41
2022-10-28T17:37:23.597Z,20.42
2022-10-28T17:39:52.098Z,20.39
2022-10-28T17:42:19.814Z,20.42
2022-10-28T17:44:47.398Z,20.41
2022-10-28T17:47:16.468Z,20.41
2022-10-28T17:49:44.123Z,20.40
2022-10-28T17:52:11.834Z,20.38
2022-10-28T17:54:39.468Z,20.36
2022-10-28T17:57:08.122Z,20.34
2022-10-28T17:59:36.103Z,20.31
2022-10-28T18:02:03.891Z,20.28
2022-10-28T18:04:33.294Z,20.24
2022-10-28T18:07:00.885Z,20.23
2022-10-28T18:09:31.617Z,20.21
2022-10-28T18:11:59.738Z,20.19
2022-10-28T18:14:28.317Z,20.17
2022-10-28T18:16:55.994Z,20.14
2022-10-28T18:19:23.727Z,20.12
2022-10-28T18:21:52.813Z,20.07
2022-10-28T18:24:23.368Z,20.05
2022-10-28T18:26:55.446Z,20.05
2022-10-28T18:29:23.158Z,20.05
2022-10-28T18:31:50.848Z,20.04
2022-10-28T18:34:18.699Z,20.04
2022-10-28T18:36:46.456Z,20.01
2022-10-28T18:39:15.541Z,20.03
2022-10-28T18:41:44.587Z,20.02
2022-10-28T18:44:14.185Z,20.03
2022-10-28T18:46:42.166Z,20.03
2022-10-28T18:49:09.863Z,20.02
2022-10-28T18:51:37.595Z,20.04
2022-10-28T18:54:05.736Z,20.03
2022-10-28T18:56:35.108Z,20.01
2022-10-28T18:59:03.851Z,20.00
2022-10-28T19:01:32.239Z,20.01
2022-10-28T19:04:01.396Z,19.96
2022-10-28T19:06:32.485Z,19.97
2022-10-28T19:09:02.557Z,19.99
2022-10-28T19:11:32.416Z,19.97
2022-10-28T19:14:02.736Z,19.93
2022-10-28T19:16:31.910Z,19.94
2022-10-28T19:19:00.576Z,19.94
2022-10-28T19:21:29.021Z,19.92
2022-10-28T19:23:56.907Z,19.90
2022-10-28T19:26:24.727Z,19.90
2022-10-28T19:28:52.992Z,19.89
2022-10-28T19:31:24.183Z,19.87
2022-10-28T19:33:52.876Z,19.88
2022-10-28T19:36:21.744Z,19.87
2022-10-28T19:38:50.771Z,19.85
2022-10-28T19:41:20.042Z,19.84
2022-10-28T19:43:49.742Z,19.82
2022-10-28T19:46:22.842Z,19.79
2022-10-28T19:48:52.213Z,19.76
2022-10-28T19:51:21.799Z,19.73
2022-10-28T19:53:50.016Z,19.71
2022-10-28T19:56:19.363Z,19.71
2022-10-28T19:58:48.105Z,19.66
2022-10-28T20:01:17.464Z,19.67
2022-10-28T20:03:49.332Z,19.66
2022-10-28T20:06:18.277Z,19.64
2022-10-28T20:08:47.996Z,19.64
2022-10-28T20:11:20.088Z,19.62
2022-10-28T20:13:53.320Z,19.60
2022-10-28T20:16:21.104Z,19.60
2022-10-28T20:18:50.570Z,19.59
2022-10-28T20:21:19.685Z,19.59
2022-10-28T20:23:49.354Z,19.58
2022-10-28T20:26:17.889Z,19.58
2022-10-28T20:28:45.540Z,19.57
2022-10-28T20:31:15.218Z,19.56
2022-10-28T20:33:44.235Z,19.57
2022-10-28T20:36:24.556Z,19.57
2022-10-28T20:38:55.680Z,19.54
2022-10-28T20:41:24.244Z,19.54
2022-10-28T20:43:52.521Z,19.52
2022-10-28T20:46:20.620Z,19.51
2022-10-28T20:48:48.718Z,19.49
2022-10-28T20:51:16.592Z,19.46
2022-10-28T20:53:45.633Z,19.45
2022-10-28T20:56:17.036Z,19.41
2022-10-28T20:58:44.685Z,19.41
2022-10-28T21:01:14.599Z,19.37
2022-10-28T21:03:42.763Z,19.34
2022-10-28T21:06:10.960Z,19.32
2022-10-28T21:08:38.786Z,19.29
2022-10-28T21:11:10.082Z,19.23
2022-10-28T21:13:37.811Z,19.22
2022-10-28T21:16:06.535Z,19.20
2022-10-28T21:18:34.507Z,19.15
2022-10-28T21:21:02.192Z,19.15
2022-10-28T21:23:29.964Z,19.12
2022-10-28T21:25:59.779Z,19.09
2022-10-28T21:28:30.041Z,19.02
2022-10-28T21:31:01.463Z,19.00
2022-10-28T21:33:29.712Z,18.99
2022-10-28T21:35:58.105Z,18.94
2022-10-28T21:38:25.996Z,18.91
2022-10-28T21:41:00.753Z,18.88
2022-10-28T21:43:31.339Z,18.85
2022-10-28T21:45:59.344Z,18.80
2022-10-28T21:48:27.811Z,18.78
2022-10-28T21:50:56.829Z,18.73
2022-10-28T21:53:25.064Z,18.70
2022-10-28T21:55:54.862Z,18.63
2022-10-28T21:58:23.223Z,18.62
2022-10-28T22:00:52.243Z,18.59
2022-10-28T22:03:19.899Z,18.55
2022-10-28T22:05:51.168Z,18.53
2022-10-28T22:08:18.803Z,18.51
2022-10-28T22:10:46.566Z,18.47
2022-10-28T22:13:14.307Z,18.41
2022-10-28T22:15:42.171Z,18.39
2022-10-28T22:18:11.289Z,18.34
2022-10-28T22:20:39.142Z,18.32
2022-10-28T22:23:06.885Z,18.28
2022-10-28T22:25:34.637Z,18.25
2022-10-28T22:28:02.297Z,18.24
2022-10-28T22:30:29.981Z,18.21
2022-10-28T22:32:57.922Z,18.19
2022-10-28T22:35:27.189Z,18.17
2022-10-28T22:37:55.146Z,18.14
2022-10-28T22:40:23.064Z,18.13
2022-10-28T22:42:50.878Z,18.10
2022-10-28T22:45:18.665Z,18.08
2022-10-28T22:47:46.363Z,18.09
2022-10-28T22:50:14.170Z,18.08
2022-10-28T22:52:43.265Z,18.04
2022-10-28T22:55:11.261Z,18.09
2022-10-28T22:57:39.026Z,18.08
2022-10-28T23:00:07.999Z,18.06
2022-10-28T23:02:35.856Z,18.06
2022-10-28T23:05:03.679Z,18.07
2022-10-28T23:07:31.345Z,18.08
2022-10-28T23:10:00.514Z,18.04
2022-10-28T23:12:28.196Z,18.04
2022-10-28T23:14:55.947Z,18.03
2022-10-28T23:17:23.687Z,18.03
2022-10-28T23:19:51.368Z,18.03
2022-10-28T23:22:18.997Z,18.03
2022-10-28T23:24:46.761Z,18.00
2022-10-28T23:27:15.917Z,17.95
2022-10-28T23:29:43.645Z,17.97
2022-10-28T23:32:11.362Z,17.95
2022-10-28T23:34:39.083Z,17.95
2022-10-28T23:37:06.838Z,17.94
2022-10-28T23:39:34.483Z,17.96
2022-10-28T23:42:02.160Z,17.96
2022-10-28T23:44:31.270Z,17.95
2022-10-28T23:46:58.950Z,17.94
2022-10-28T23:49:26.656Z,17.93
2022-10-28T23:51:54.297Z,17.92
2022-10-28T23:54:22.010Z,17.91
2022-10-28T23:56:49.757Z,17.89
2022-10-28T23:59:17.452Z,17.89
